Time;durP1;ratioP1;P1;durP2;ratioP2;P2;SDS_P1;SDS_P2;PMS_P1;PMS_P2;Temp;Humidity;BMP_temperature;BMP_pressure;BME280_temperature;BME280_humidity;BME280_pressure;Samples;Min_cycle;Max_cycle;Signal;HPM_P1;HPM_P2
2023/08/19 00:00:54;;;;;;;0.40;0.40;;;;;;;;;;5094322;28;20024;-82
2023/08/19 00:03:20;;;;;;;0.10;0.10;;;;;;;;;;5094410;28;20089;-82
2023/08/19 00:05:46;;;;;;;0.00;0.00;;;;;;;;;;5076240;28;20385;-82
2023/08/19 00:08:13;;;;;;;0.10;0.10;;;;;;;;;;5094493;28;20032;-82
2023/08/19 00:10:39;;;;;;;0.10;0.10;;;;;;;;;;5094204;28;20020;-82
2023/08/19 00:13:05;;;;;;;0.40;0.30;;;;;;;;;;5094417;28;20136;-82
2023/08/19 00:15:32;;;;;;;0.00;0.00;;;;;;;;;;5093902;28;20537;-82
2023/08/19 00:18:00;;;;;;;0.15;0.15;;;;;;;;;;5094120;28;20206;-82
2023/08/19 00:20:28;;;;;;;0.15;0.15;;;;;;;;;;5094264;28;20036;-82
2023/08/19 00:22:55;;;;;;;0.20;0.10;;;;;;;;;;5094136;28;20115;-82
2023/08/19 00:25:21;;;;;;;0.20;0.13;;;;;;;;;;5093381;28;20109;-82
2023/08/19 00:27:47;;;;;;;0.20;0.20;;;;;;;;;;5094122;28;20062;-82
2023/08/19 00:30:13;;;;;;;0.10;0.10;;;;;;;;;;5093914;28;20077;-82
2023/08/19 00:32:40;;;;;;;0.30;0.30;;;;;;;;;;5094079;28;20032;-81
2023/08/19 00:35:06;;;;;;;0.10;0.10;;;;;;;;;;5093868;28;20063;-83
2023/08/19 00:37:32;;;;;;;0.20;0.20;;;;;;;;;;5093830;28;20027;-82
2023/08/19 00:39:58;;;;;;;0.20;0.20;;;;;;;;;;5093793;28;20038;-82
2023/08/19 00:42:24;;;;;;;0.10;0.10;;;;;;;;;;5093849;28;20480;-82
2023/08/19 00:44:50;;;;;;;0.10;0.10;;;;;;;;;;5093406;28;20024;-82
2023/08/19 00:47:16;;;;;;;0.28;0.28;;;;;;;;;;5093656;28;20028;-82
2023/08/19 00:49:43;;;;;;;0.10;0.10;;;;;;;;;;5093762;28;20084;-82
2023/08/19 00:52:09;;;;;;;0.10;0.10;;;;;;;;;;5093586;28;20469;-82
2023/08/19 00:54:35;;;;;;;0.05;0.05;;;;;;;;;;5093675;28;20094;-82
2023/08/19 00:57:01;;;;;;;0.10;0.10;;;;;;;;;;5093731;28;20036;-82
2023/08/19 00:59:27;;;;;;;0.00;0.00;;;;;;;;;;5093082;28;20477;-82
2023/08/19 01:01:53;;;;;;;0.00;0.00;;;;;;;;;;5093389;28;20039;-82
2023/08/19 01:04:19;;;;;;;0.10;0.10;;;;;;;;;;5093582;28;20028;-82
2023/08/19 01:07:05;;;;;;;0.10;0.10;;;;;;;;;;5093359;28;20089;-82
2023/08/19 01:09:37;;;;;;;0.00;0.00;;;;;;;;;;5093422;28;20500;-82
2023/08/19 01:12:10;;;;;;;0.10;0.10;;;;;;;;;;5093227;28;20029;-82
2023/08/19 01:14:50;;;;;;;0.00;0.00;;;;;;;;;;5092854;28;20051;-82
2023/08/19 01:17:18;;;;;;;0.00;0.00;;;;;;;;;;5075118;28;20028;-82
2023/08/19 01:19:45;;;;;;;0.05;0.05;;;;;;;;;;5092965;28;20079;-82
2023/08/19 01:22:16;;;;;;;0.20;0.20;;;;;;;;;;5093202;28;20093;-82
2023/08/19 01:24:42;;;;;;;0.10;0.10;;;;;;;;;;5092757;28;20024;-82
2023/08/19 01:27:25;;;;;;;0.00;0.00;;;;;;;;;;5074841;28;20085;-82
2023/08/19 01:29:51;;;;;;;0.08;0.08;;;;;;;;;;5093052;28;20024;-82
2023/08/19 01:32:18;;;;;;;0.20;0.20;;;;;;;;;;5093098;28;20039;-83
2023/08/19 01:34:44;;;;;;;0.20;0.20;;;;;;;;;;5092892;28;20370;-82
2023/08/19 01:37:13;;;;;;;0.00;0.00;;;;;;;;;;5091961;28;20028;-82
2023/08/19 01:39:40;;;;;;;0.43;0.10;;;;;;;;;;5092962;28;20024;-82
2023/08/19 01:42:07;;;;;;;0.00;0.00;;;;;;;;;;5092578;28;20024;-82
2023/08/19 01:44:33;;;;;;;0.10;0.10;;;;;;;;;;5092799;28;20389;-82
2023/08/19 01:47:12;;;;;;;0.00;0.00;;;;;;;;;;5092877;28;20039;-82
2023/08/19 01:49:38;;;;;;;1.02;0.20;;;;;;;;;;5092995;28;20038;-82
2023/08/19 01:52:04;;;;;;;0.30;0.20;;;;;;;;;;5092727;28;20032;-82
2023/08/19 01:54:30;;;;;;;0.00;0.00;;;;;;;;;;5092618;28;20499;-82
2023/08/19 01:56:56;;;;;;;0.00;0.00;;;;;;;;;;5092488;28;20186;-82
2023/08/19 01:59:22;;;;;;;0.25;0.15;;;;;;;;;;5092645;28;20031;-82
2023/08/19 02:01:48;;;;;;;0.30;0.13;;;;;;;;;;5092539;28;20028;-82
2023/08/19 02:04:14;;;;;;;0.00;0.00;;;;;;;;;;5092790;28;20081;-82
2023/08/19 02:06:40;;;;;;;0.08;0.08;;;;;;;;;;5092447;28;20463;-82
2023/08/19 02:09:06;;;;;;;0.05;0.05;;;;;;;;;;5092638;28;20030;-82
2023/08/19 02:11:32;;;;;;;0.00;0.00;;;;;;;;;;5092362;28;20043;-81
2023/08/19 02:13:58;;;;;;;0.10;0.10;;;;;;;;;;5092532;28;20028;-81
2023/08/19 02:16:24;;;;;;;0.10;0.10;;;;;;;;;;5092678;28;20028;-82
2023/08/19 02:18:50;;;;;;;0.10;0.10;;;;;;;;;;5091992;28;20045;-81
2023/08/19 02:21:16;;;;;;;0.15;0.15;;;;;;;;;;5092219;28;20442;-82
2023/08/19 02:23:42;;;;;;;0.10;0.10;;;;;;;;;;5091498;28;20319;-82
2023/08/19 02:26:08;;;;;;;0.20;0.20;;;;;;;;;;5091541;28;20024;-82
2023/08/19 02:28:34;;;;;;;0.00;0.00;;;;;;;;;;5092324;28;20039;-82
2023/08/19 02:31:03;;;;;;;0.00;0.00;;;;;;;;;;5092498;28;20028;-81
2023/08/19 02:33:29;;;;;;;0.15;0.15;;;;;;;;;;5092303;28;20028;-82
2023/08/19 02:35:55;;;;;;;0.10;0.10;;;;;;;;;;5092234;28;20389;-82
2023/08/19 02:38:21;;;;;;;0.10;0.10;;;;;;;;;;5092030;28;20024;-82
2023/08/19 02:40:50;;;;;;;0.08;0.08;;;;;;;;;;5091940;28;20020;-82
2023/08/19 02:43:17;;;;;;;0.10;0.10;;;;;;;;;;5092241;28;20036;-81
2023/08/19 02:45:43;;;;;;;0.00;0.00;;;;;;;;;;5092222;28;20048;-81
2023/08/19 02:48:09;;;;;;;0.20;0.20;;;;;;;;;;5094495;28;20020;-82
2023/08/19 02:50:35;;;;;;;0.00;0.00;;;;;;;;;;5095982;28;20525;-81
2023/08/19 02:53:01;;;;;;;0.10;0.10;;;;;;;;;;5096069;28;20431;-81
2023/08/19 02:55:27;;;;;;;0.13;0.13;;;;;;;;;;5095598;28;20024;-82
2023/08/19 02:57:53;;;;;;;0.10;0.10;;;;;;;;;;5095871;28;20024;-82
2023/08/19 03:00:19;;;;;;;0.00;0.00;;;;;;;;;;5077638;28;20032;-82
2023/08/19 03:02:46;;;;;;;0.30;0.30;;;;;;;;;;5095787;28;20404;-82
2023/08/19 03:05:12;;;;;;;0.10;0.10;;;;;;;;;;5095694;28;20035;-82
2023/08/19 03:07:38;;;;;;;0.10;0.10;;;;;;;;;;5095734;28;20110;-82
2023/08/19 03:10:05;;;;;;;0.15;0.15;;;;;;;;;;5095354;28;20136;-81
2023/08/19 03:12:31;;;;;;;0.20;0.20;;;;;;;;;;5095601;28;20034;-82
2023/08/19 03:14:57;;;;;;;0.15;0.15;;;;;;;;;;5095621;28;20020;-82
2023/08/19 03:17:23;;;;;;;0.13;0.13;;;;;;;;;;5095532;28;20464;-81
2023/08/19 03:19:49;;;;;;;0.52;0.52;;;;;;;;;;5095301;28;20044;-82
2023/08/19 03:22:15;;;;;;;0.30;0.30;;;;;;;;;;5095395;28;20050;-82
2023/08/19 03:24:41;;;;;;;0.65;0.43;;;;;;;;;;5094977;28;20039;-81
2023/08/19 03:27:07;;;;;;;0.43;0.43;;;;;;;;;;5095410;28;20024;-82
2023/08/19 03:29:33;;;;;;;0.10;0.10;;;;;;;;;;5095452;28;20036;-82
2023/08/19 03:31:59;;;;;;;0.32;0.32;;;;;;;;;;5095226;28;20485;-81
2023/08/19 03:34:25;;;;;;;0.30;0.22;;;;;;;;;;5095228;28;20025;-82
2023/08/19 03:36:51;;;;;;;0.10;0.10;;;;;;;;;;5094931;28;20035;-82
2023/08/19 03:39:17;;;;;;;0.20;0.20;;;;;;;;;;5094806;28;20032;-82
2023/08/19 03:41:43;;;;;;;0.20;0.10;;;;;;;;;;5095034;28;20063;-82
2023/08/19 03:44:09;;;;;;;0.55;0.30;;;;;;;;;;5094959;28;20070;-81
2023/08/19 03:46:35;;;;;;;0.73;0.45;;;;;;;;;;5094841;28;20047;-82
2023/08/19 03:49:02;;;;;;;0.10;0.10;;;;;;;;;;5094937;28;20511;-81
2023/08/19 03:51:28;;;;;;;0.10;0.10;;;;;;;;;;5094725;28;20028;-82
2023/08/19 03:53:54;;;;;;;0.20;0.20;;;;;;;;;;5094490;28;20476;-81
2023/08/19 03:56:20;;;;;;;0.10;0.10;;;;;;;;;;5094876;28;20020;-82
2023/08/19 03:58:46;;;;;;;0.25;0.25;;;;;;;;;;5094025;28;20028;-81
2023/08/19 04:01:12;;;;;;;0.20;0.20;;;;;;;;;;5094530;28;20029;-82
2023/08/19 04:03:39;;;;;;;0.10;0.10;;;;;;;;;;5094541;28;20493;-81
2023/08/19 04:06:05;;;;;;;0.17;0.17;;;;;;;;;;5094561;28;20028;-81
2023/08/19 04:08:31;;;;;;;0.15;0.15;;;;;;;;;;5093955;28;20031;-80
2023/08/19 04:11:07;;;;;;;0.10;0.10;;;;;;;;;;5094658;28;20028;-82
2023/08/19 04:13:33;;;;;;;0.30;0.20;;;;;;;;;;5094453;28;20031;-81
2023/08/19 04:16:05;;;;;;;0.10;0.10;;;;;;;;;;5094348;28;20024;-82
2023/08/19 04:18:32;;;;;;;0.30;0.30;;;;;;;;;;5094052;28;20051;-81
2023/08/19 04:21:01;;;;;;;0.20;0.20;;;;;;;;;;5076164;28;20027;-82
2023/08/19 04:23:27;;;;;;;0.10;0.10;;;;;;;;;;5093644;28;20043;-82
2023/08/19 04:25:55;;;;;;;0.43;0.15;;;;;;;;;;5094064;28;20016;-82
2023/08/19 04:28:21;;;;;;;0.20;0.15;;;;;;;;;;5094076;28;20032;-81
2023/08/19 04:30:47;;;;;;;0.20;0.20;;;;;;;;;;5093686;28;20022;-81
2023/08/19 04:33:14;;;;;;;0.10;0.10;;;;;;;;;;5094016;28;20447;-81
2023/08/19 04:35:40;;;;;;;0.00;0.00;;;;;;;;;;5093352;28;20028;-81
2023/08/19 04:38:06;;;;;;;0.30;0.30;;;;;;;;;;5092980;28;20081;-81
2023/08/19 04:40:32;;;;;;;0.55;0.55;;;;;;;;;;5093891;28;20588;-81
2023/08/19 04:42:58;;;;;;;2.38;0.30;;;;;;;;;;5093659;28;20040;-81
2023/08/19 04:45:24;;;;;;;0.20;0.20;;;;;;;;;;5093652;28;20016;-82
2023/08/19 04:47:50;;;;;;;0.10;0.10;;;;;;;;;;5093622;28;20495;-81
2023/08/19 04:50:16;;;;;;;0.10;0.10;;;;;;;;;;5093784;28;20085;-81
2023/08/19 04:52:42;;;;;;;0.17;0.17;;;;;;;;;;5093053;28;20100;-81
2023/08/19 04:55:09;;;;;;;0.20;0.20;;;;;;;;;;5092893;28;20556;-81
2023/08/19 04:57:35;;;;;;;0.28;0.28;;;;;;;;;;5093385;28;20150;-81
2023/08/19 05:00:01;;;;;;;0.28;0.28;;;;;;;;;;5093449;28;20058;-81
2023/08/19 05:02:27;;;;;;;0.10;0.10;;;;;;;;;;5092888;28;20028;-81
2023/08/19 05:04:53;;;;;;;0.25;0.15;;;;;;;;;;5092808;28;20038;-81
2023/08/19 05:07:19;;;;;;;0.00;0.00;;;;;;;;;;5093303;28;20028;-81
2023/08/19 05:09:45;;;;;;;0.52;0.20;;;;;;;;;;5093146;28;20491;-81
2023/08/19 05:12:11;;;;;;;0.03;0.03;;;;;;;;;;5093073;28;20038;-81
2023/08/19 05:14:37;;;;;;;0.00;0.00;;;;;;;;;;5090485;28;20078;-81
2023/08/19 05:17:03;;;;;;;0.10;0.10;;;;;;;;;;5075185;28;20024;-79
2023/08/19 05:19:31;;;;;;;0.45;0.38;;;;;;;;;;5092622;28;20052;-79
2023/08/19 05:21:57;;;;;;;0.15;0.15;;;;;;;;;;5093026;28;20028;-81
2023/08/19 05:24:23;;;;;;;0.15;0.15;;;;;;;;;;5092899;28;20077;-79
2023/08/19 05:26:49;;;;;;;0.08;0.08;;;;;;;;;;5092934;28;20500;-78
2023/08/19 05:29:16;;;;;;;0.10;0.10;;;;;;;;;;5092764;28;20028;-79
2023/08/19 05:31:42;;;;;;;0.13;0.13;;;;;;;;;;5092766;28;20020;-78
2023/08/19 05:34:08;;;;;;;0.10;0.10;;;;;;;;;;5092695;28;20072;-78
2023/08/19 05:36:34;;;;;;;0.10;0.10;;;;;;;;;;5092688;28;20481;-78
2023/08/19 05:39:00;;;;;;;0.10;0.10;;;;;;;;;;5093013;28;20028;-78
2023/08/19 05:41:27;;;;;;;0.03;0.03;;;;;;;;;;5092776;28;20027;-78
2023/08/19 05:43:53;;;;;;;0.10;0.10;;;;;;;;;;5092933;28;20039;-78
2023/08/19 05:46:19;;;;;;;0.10;0.10;;;;;;;;;;5092820;28;20024;-78
2023/08/19 05:48:45;;;;;;;0.10;0.10;;;;;;;;;;5092495;28;20503;-78
2023/08/19 05:51:11;;;;;;;0.00;0.00;;;;;;;;;;5092556;28;20024;-78
2023/08/19 05:53:38;;;;;;;0.10;0.10;;;;;;;;;;5092638;28;20480;-78
2023/08/19 05:56:04;;;;;;;0.00;0.00;;;;;;;;;;5092706;28;20031;-78
2023/08/19 05:58:30;;;;;;;0.20;0.20;;;;;;;;;;5092682;28;20024;-78
2023/08/19 06:00:57;;;;;;;0.10;0.10;;;;;;;;;;5092620;28;20025;-78
2023/08/19 06:03:23;;;;;;;0.00;0.00;;;;;;;;;;5092183;28;20036;-78
2023/08/19 06:05:49;;;;;;;0.00;0.00;;;;;;;;;;5092505;28;20032;-78
2023/08/19 06:08:15;;;;;;;0.10;0.10;;;;;;;;;;5092597;28;20485;-78
2023/08/19 06:10:44;;;;;;;0.10;0.10;;;;;;;;;;5092549;28;20489;-78
2023/08/19 06:13:10;;;;;;;0.10;0.10;;;;;;;;;;5092495;28;20024;-78
2023/08/19 06:15:36;;;;;;;0.00;0.00;;;;;;;;;;5092182;28;20032;-78
2023/08/19 06:18:02;;;;;;;0.65;0.38;;;;;;;;;;5092002;28;20020;-78
2023/08/19 06:20:28;;;;;;;0.10;0.10;;;;;;;;;;5092546;28;20036;-78
2023/08/19 06:22:54;;;;;;;0.10;0.10;;;;;;;;;;5094469;28;20047;-78
2023/08/19 06:25:21;;;;;;;0.10;0.10;;;;;;;;;;5096104;28;20473;-78
2023/08/19 06:27:47;;;;;;;0.10;0.10;;;;;;;;;;5096232;28;20043;-78
2023/08/19 06:30:13;;;;;;;0.00;0.00;;;;;;;;;;5095836;28;20016;-78
2023/08/19 06:32:39;;;;;;;0.00;0.00;;;;;;;;;;5095954;28;20389;-78
2023/08/19 06:35:06;;;;;;;0.10;0.10;;;;;;;;;;5096210;28;20016;-76
2023/08/19 06:37:34;;;;;;;0.00;0.00;;;;;;;;;;5096154;28;20020;-75
2023/08/19 06:40:06;;;;;;;0.10;0.10;;;;;;;;;;5095633;28;20385;-74
2023/08/19 06:42:33;;;;;;;0.00;0.00;;;;;;;;;;5094802;28;20028;-75
2023/08/19 06:45:00;;;;;;;0.22;0.22;;;;;;;;;;5090553;28;20028;-74
2023/08/19 06:47:27;;;;;;;0.20;0.20;;;;;;;;;;5095341;28;20555;-74
2023/08/19 06:49:53;;;;;;;0.03;0.03;;;;;;;;;;5095902;28;20099;-73
2023/08/19 06:52:19;;;;;;;0.17;0.17;;;;;;;;;;5095136;28;20111;-75
2023/08/19 06:54:46;;;;;;;0.10;0.10;;;;;;;;;;5095406;28;20032;-79
2023/08/19 06:57:16;;;;;;;0.10;0.10;;;;;;;;;;5095887;28;20031;-75
2023/08/19 06:59:47;;;;;;;0.13;0.13;;;;;;;;;;5095847;28;20028;-74
2023/08/19 07:02:16;;;;;;;0.32;0.32;;;;;;;;;;5095367;28;20043;-75
2023/08/19 07:04:44;;;;;;;0.00;0.00;;;;;;;;;;5095807;28;20020;-74
2023/08/19 07:07:10;;;;;;;0.10;0.10;;;;;;;;;;5095569;28;20017;-75
2023/08/19 07:09:37;;;;;;;0.20;0.20;;;;;;;;;;5095800;28;20020;-75
2023/08/19 07:12:03;;;;;;;0.00;0.00;;;;;;;;;;5095560;28;20123;-76
2023/08/19 07:14:29;;;;;;;0.00;0.00;;;;;;;;;;5095453;28;20024;-76
2023/08/19 07:16:56;;;;;;;0.30;0.30;;;;;;;;;;5095239;28;20457;-75
2023/08/19 07:19:26;;;;;;;0.20;0.20;;;;;;;;;;5095303;28;20044;-78
2023/08/19 07:21:52;;;;;;;0.20;0.20;;;;;;;;;;5095377;28;20073;-79
2023/08/19 07:24:18;;;;;;;0.20;0.20;;;;;;;;;;5094537;28;20040;-81
2023/08/19 07:26:45;;;;;;;0.17;0.13;;;;;;;;;;5095481;28;20047;-78
2023/08/19 07:29:11;;;;;;;0.13;0.13;;;;;;;;;;5094711;28;20028;-79
2023/08/19 07:31:37;;;;;;;0.57;0.57;;;;;;;;;;5094426;28;20400;-81
2023/08/19 07:34:03;;;;;;;1.02;0.68;;;;;;;;;;5093811;28;20035;-80
2023/08/19 07:36:29;;;;;;;0.40;0.40;;;;;;;;;;5094466;28;20024;-81
2023/08/19 07:38:55;;;;;;;0.10;0.10;;;;;;;;;;5094532;28;20020;-81
2023/08/19 07:41:21;;;;;;;13.00;0.60;;;;;;;;;;5095106;28;20031;-83
2023/08/19 07:43:48;;;;;;;0.60;0.40;;;;;;;;;;5094939;28;20043;-84
2023/08/19 07:46:17;;;;;;;0.63;0.63;;;;;;;;;;5094535;28;20501;-79
2023/08/19 07:48:44;;;;;;;0.20;0.20;;;;;;;;;;5094827;28;20396;-79
2023/08/19 07:51:10;;;;;;;0.70;0.40;;;;;;;;;;5094758;28;20031;-83
2023/08/19 07:53:36;;;;;;;0.20;0.20;;;;;;;;;;5076697;28;20443;-85
2023/08/19 07:56:02;;;;;;;0.13;0.13;;;;;;;;;;5094751;28;20090;-82
2023/08/19 07:58:28;;;;;;;0.20;0.20;;;;;;;;;;5094787;28;20048;-84
2023/08/19 08:00:54;;;;;;;0.20;0.15;;;;;;;;;;5094203;28;20563;-85
2023/08/19 08:03:20;;;;;;;1.00;1.00;;;;;;;;;;5094456;28;20036;-80
2023/08/19 08:05:46;;;;;;;0.43;0.43;;;;;;;;;;5094446;28;20111;-78
2023/08/19 08:08:12;;;;;;;0.98;0.25;;;;;;;;;;5094198;28;20129;-81
2023/08/19 08:10:39;;;;;;;0.63;0.60;;;;;;;;;;5094400;28;20024;-78
2023/08/19 08:13:05;;;;;;;0.17;0.17;;;;;;;;;;5094664;28;20054;-91
2023/08/19 08:15:31;;;;;;;1.45;0.60;;;;;;;;;;5093907;28;20054;-84
2023/08/19 08:17:57;;;;;;;0.20;0.20;;;;;;;;;;5094240;28;20024;-84
2023/08/19 08:20:23;;;;;;;0.20;0.20;;;;;;;;;;5094342;28;20032;-85
2023/08/19 08:22:49;;;;;;;0.20;0.20;;;;;;;;;;5094154;28;20059;-86
2023/08/19 08:25:15;;;;;;;3.05;0.82;;;;;;;;;;5094004;28;20393;-86
2023/08/19 08:27:41;;;;;;;0.38;0.35;;;;;;;;;;5094183;28;20028;-85
2023/08/19 08:30:07;;;;;;;4.65;1.13;;;;;;;;;;5093781;28;20020;-88
2023/08/19 08:32:33;;;;;;;0.32;0.32;;;;;;;;;;5075811;28;20040;-87
2023/08/19 08:34:59;;;;;;;1.75;1.55;;;;;;;;;;5093892;28;20020;-84
2023/08/19 08:37:25;;;;;;;0.80;0.65;;;;;;;;;;5093598;28;20097;-84
2023/08/19 08:39:51;;;;;;;2.55;1.15;;;;;;;;;;5093790;28;20457;-84
2023/08/19 08:42:17;;;;;;;0.38;0.38;;;;;;;;;;5091998;28;20124;-84
2023/08/19 08:44:47;;;;;;;25.35;1.23;;;;;;;;;;5091953;28;20449;-89
2023/08/19 08:47:13;;;;;;;0.40;0.25;;;;;;;;;;5075409;28;20020;-91
2023/08/19 08:49:39;;;;;;;0.28;0.10;;;;;;;;;;5075183;28;20500;-94
2023/08/19 08:52:06;;;;;;;0.43;0.43;;;;;;;;;;5093234;28;20081;-90
2023/08/19 08:54:33;;;;;;;0.30;0.30;;;;;;;;;;5093205;28;20385;-92
2023/08/19 08:57:02;;;;;;;0.15;0.15;;;;;;;;;;5093402;28;20076;-92
2023/08/19 08:59:28;;;;;;;1.58;1.08;;;;;;;;;;5094269;28;20495;-91
2023/08/19 09:01:54;;;;;;;0.43;0.40;;;;;;;;;;5076801;28;20024;-93
2023/08/19 09:04:21;;;;;;;0.47;0.30;;;;;;;;;;5075491;28;20461;-93
2023/08/19 09:06:50;;;;;;;1.10;0.95;;;;;;;;;;5095040;28;20048;-92
2023/08/19 09:09:16;;;;;;;0.52;0.50;;;;;;;;;;5093664;28;20059;-91
2023/08/19 09:11:45;;;;;;;0.20;0.20;;;;;;;;;;5096194;28;20026;-95
2023/08/19 09:14:39;;;;;;;0.55;0.55;;;;;;;;;;5098336;28;20032;-95
2023/08/19 09:17:06;;;;;;;0.35;0.35;;;;;;;;;;5096531;28;20032;-85
2023/08/19 09:19:32;;;;;;;0.30;0.30;;;;;;;;;;5092834;28;20500;-92
2023/08/19 09:21:58;;;;;;;0.55;0.55;;;;;;;;;;5073014;28;20032;-90
2023/08/19 09:24:25;;;;;;;0.52;0.52;;;;;;;;;;5080926;28;20109;-93
2023/08/19 09:26:57;;;;;;;2.45;1.02;;;;;;;;;;5091700;28;20024;-90
2023/08/19 09:29:23;;;;;;;0.20;0.20;;;;;;;;;;5091059;28;20036;-92
2023/08/19 09:31:53;;;;;;;0.30;0.30;;;;;;;;;;5079305;28;20012;-91
2023/08/19 09:34:24;;;;;;;0.10;0.10;;;;;;;;;;5077353;28;20146;-95
2023/08/19 09:36:54;;;;;;;0.52;0.20;;;;;;;;;;5095424;28;20469;-95
2023/08/19 09:39:20;;;;;;;2.65;1.55;;;;;;;;;;5092113;28;20063;-91
2023/08/19 09:41:46;;;;;;;5.68;1.75;;;;;;;;;;5093626;28;20032;-92
2023/08/19 09:44:13;;;;;;;8.65;3.53;;;;;;;;;;5091929;28;20106;-91
2023/08/19 09:46:40;;;;;;;1.27;0.93;;;;;;;;;;5094649;28;20036;-90
2023/08/19 09:49:06;;;;;;;0.20;0.20;;;;;;;;;;5091934;28;20145;-89
2023/08/19 09:51:32;;;;;;;0.52;0.52;;;;;;;;;;5094676;28;20489;-94
2023/08/19 09:54:08;;;;;;;3.50;1.67;;;;;;;;;;5093617;28;20514;-88
2023/08/19 09:56:34;;;;;;;1.05;0.88;;;;;;;;;;5090246;28;20511;-93
2023/08/19 09:59:00;;;;;;;1.92;1.02;;;;;;;;;;5095121;28;20036;-96
2023/08/19 10:01:27;;;;;;;1.15;0.90;;;;;;;;;;5095365;28;20402;-91
2023/08/19 10:03:53;;;;;;;0.70;0.52;;;;;;;;;;5094607;28;20043;-96
2023/08/19 10:06:27;;;;;;;0.38;0.35;;;;;;;;;;5073750;28;20073;-89
2023/08/19 10:09:00;;;;;;;0.10;0.10;;;;;;;;;;5092534;28;20034;-93
2023/08/19 10:11:28;;;;;;;1.10;0.80;;;;;;;;;;5092466;28;20069;-94
2023/08/19 10:13:55;;;;;;;0.30;0.30;;;;;;;;;;5093150;28;20076;-90
2023/08/19 10:16:23;;;;;;;0.65;0.32;;;;;;;;;;5074536;28;20481;-91
2023/08/19 10:18:51;;;;;;;0.10;0.10;;;;;;;;;;5093502;28;20408;-92
2023/08/19 10:21:31;;;;;;;0.20;0.20;;;;;;;;;;5095464;28;20032;-96
2023/08/19 10:23:57;;;;;;;2.00;1.10;;;;;;;;;;5087809;28;20147;-89
2023/08/19 10:26:23;;;;;;;1.38;1.15;;;;;;;;;;5074062;28;20017;-89
2023/08/19 10:29:05;;;;;;;0.22;0.22;;;;;;;;;;5071992;28;20033;-94
2023/08/19 10:31:32;;;;;;;0.20;0.20;;;;;;;;;;5087081;28;20036;-90
2023/08/19 10:33:58;;;;;;;0.10;0.10;;;;;;;;;;5091804;28;20524;-92
2023/08/19 10:36:29;;;;;;;1.27;0.60;;;;;;;;;;5091361;28;20032;-93
2023/08/19 10:39:00;;;;;;;0.35;0.35;;;;;;;;;;5093477;28;20027;-92
2023/08/19 10:41:35;;;;;;;0.45;0.38;;;;;;;;;;5074481;28;20044;-95
2023/08/19 10:44:03;;;;;;;0.45;0.40;;;;;;;;;;5093211;28;20067;-92
2023/08/19 10:46:29;;;;;;;0.22;0.22;;;;;;;;;;5091980;28;20385;-95
2023/08/19 10:48:57;;;;;;;0.30;0.30;;;;;;;;;;5077854;28;20058;-96
2023/08/19 10:51:53;;;;;;;0.15;0.15;;;;;;;;;;5098345;28;20043;-96
2023/08/19 10:54:57;;;;;;;0.25;0.25;;;;;;;;;;5078320;28;20048;-96
2023/08/19 10:57:40;;;;;;;0.03;0.03;;;;;;;;;;5082648;28;20035;-96
2023/08/19 11:00:08;;;;;;;0.10;0.10;;;;;;;;;;5103477;28;20036;-96
2023/08/19 11:02:34;;;;;;;0.20;0.20;;;;;;;;;;5102212;28;20032;-96
2023/08/19 11:05:03;;;;;;;0.20;0.20;;;;;;;;;;5095890;28;20107;-96
2023/08/19 11:07:29;;;;;;;0.20;0.20;;;;;;;;;;5093209;28;20032;-96
2023/08/19 11:09:55;;;;;;;0.22;0.22;;;;;;;;;;5099732;28;20507;-96
2023/08/19 11:12:22;;;;;;;0.30;0.30;;;;;;;;;;5083437;28;20114;-96
2023/08/19 11:14:50;;;;;;;0.40;0.40;;;;;;;;;;5106110;28;20024;-96
2023/08/19 11:17:17;;;;;;;0.45;0.40;;;;;;;;;;5091758;28;20016;-96
2023/08/19 11:19:47;;;;;;;0.40;0.40;;;;;;;;;;5104988;28;20048;-96
2023/08/19 11:22:17;;;;;;;0.10;0.10;;;;;;;;;;5103582;28;20039;-89
2023/08/19 11:24:49;;;;;;;0.40;0.28;;;;;;;;;;5099369;28;20040;-96
2023/08/19 11:27:15;;;;;;;1.42;0.75;;;;;;;;;;5096129;28;20043;-92
2023/08/19 11:29:45;;;;;;;3.85;1.33;;;;;;;;;;5096630;28;20544;-94
2023/08/19 11:32:17;;;;;;;0.50;0.50;;;;;;;;;;5105622;28;20026;-94
2023/08/19 11:34:46;;;;;;;0.30;0.30;;;;;;;;;;5096703;28;20053;-96
2023/08/19 11:37:12;;;;;;;1.65;0.93;;;;;;;;;;5093581;28;20572;-92
2023/08/19 11:39:38;;;;;;;0.38;0.38;;;;;;;;;;5095685;28;20051;-93
2023/08/19 11:42:04;;;;;;;0.32;0.32;;;;;;;;;;5096138;28;20039;-88
2023/08/19 11:44:31;;;;;;;1.73;0.40;;;;;;;;;;5093693;28;20031;-93
2023/08/19 11:46:57;;;;;;;0.30;0.30;;;;;;;;;;5094635;28;20055;-93
2023/08/19 11:49:26;;;;;;;0.55;0.55;;;;;;;;;;5095906;28;20078;-91
2023/08/19 11:51:52;;;;;;;0.60;0.40;;;;;;;;;;5077179;28;20392;-94
2023/08/19 11:54:18;;;;;;;1.40;0.95;;;;;;;;;;5095834;28;20098;-93
2023/08/19 11:56:45;;;;;;;0.30;0.30;;;;;;;;;;5095250;28;20039;-90
2023/08/19 11:59:11;;;;;;;0.32;0.32;;;;;;;;;;5094305;28;20020;-89
2023/08/19 12:01:37;;;;;;;0.52;0.45;;;;;;;;;;5094606;28;20028;-85
2023/08/19 12:04:09;;;;;;;0.22;0.22;;;;;;;;;;5094324;28;20040;-90
2023/08/19 12:06:35;;;;;;;0.60;0.50;;;;;;;;;;5075532;28;20551;-86
2023/08/19 12:09:01;;;;;;;0.30;0.30;;;;;;;;;;5094673;28;20052;-87
2023/08/19 12:11:27;;;;;;;0.20;0.20;;;;;;;;;;5094277;28;20123;-87
2023/08/19 12:13:53;;;;;;;0.40;0.40;;;;;;;;;;5094398;28;20028;-88
2023/08/19 12:16:19;;;;;;;3.33;0.90;;;;;;;;;;5107778;28;20027;-86
2023/08/19 12:18:45;;;;;;;0.30;0.30;;;;;;;;;;5107345;28;20459;-86
2023/08/19 12:21:12;;;;;;;0.30;0.30;;;;;;;;;;5101457;28;20031;-88
2023/08/19 12:23:38;;;;;;;0.25;0.25;;;;;;;;;;5102913;28;20101;-87
2023/08/19 12:26:04;;;;;;;2.15;1.27;;;;;;;;;;5075401;28;20035;-88
2023/08/19 12:28:30;;;;;;;0.20;0.20;;;;;;;;;;5093845;28;20032;-84
2023/08/19 12:30:56;;;;;;;0.35;0.35;;;;;;;;;;5093777;28;20032;-85
2023/08/19 12:33:22;;;;;;;2.28;2.10;;;;;;;;;;5093745;28;20024;-84
2023/08/19 12:35:51;;;;;;;14.55;1.85;;;;;;;;;;5073474;28;20028;-89
2023/08/19 12:38:21;;;;;;;7.03;0.65;;;;;;;;;;5093955;28;20028;-87
2023/08/19 12:40:48;;;;;;;1.75;1.20;;;;;;;;;;5093672;28;20177;-87
2023/08/19 12:43:14;;;;;;;0.38;0.38;;;;;;;;;;5093809;28;20040;-88
2023/08/19 12:45:41;;;;;;;0.40;0.40;;;;;;;;;;5092966;28;20016;-88
2023/08/19 12:48:08;;;;;;;0.32;0.32;;;;;;;;;;5093840;28;20027;-90
2023/08/19 12:50:34;;;;;;;0.30;0.30;;;;;;;;;;5074425;28;20024;-89
2023/08/19 12:53:00;;;;;;;0.60;0.57;;;;;;;;;;5093638;28;20024;-87
2023/08/19 12:55:27;;;;;;;0.50;0.50;;;;;;;;;;5093835;28;20018;-93
2023/08/19 12:57:57;;;;;;;0.60;0.60;;;;;;;;;;5095346;28;20024;-90
2023/08/19 13:00:24;;;;;;;0.40;0.40;;;;;;;;;;5093571;28;20052;-87
2023/08/19 13:02:50;;;;;;;0.47;0.45;;;;;;;;;;5092937;28;20032;-87
2023/08/19 13:05:16;;;;;;;0.20;0.20;;;;;;;;;;5092985;28;20024;-86
2023/08/19 13:07:42;;;;;;;1.17;1.05;;;;;;;;;;5093212;28;20392;-87
2023/08/19 13:10:09;;;;;;;0.50;0.50;;;;;;;;;;5093297;28;20028;-87
2023/08/19 13:12:35;;;;;;;0.73;0.70;;;;;;;;;;5092677;28;20435;-87
2023/08/19 13:15:01;;;;;;;0.52;0.52;;;;;;;;;;5091687;28;20032;-86
2023/08/19 13:17:28;;;;;;;0.40;0.40;;;;;;;;;;5093121;28;20062;-87
2023/08/19 13:19:54;;;;;;;0.77;0.55;;;;;;;;;;5092425;28;20059;-90
2023/08/19 13:22:21;;;;;;;3.58;1.38;;;;;;;;;;5092665;28;20028;-87
2023/08/19 13:24:47;;;;;;;3.85;0.82;;;;;;;;;;5073843;28;20031;-84
2023/08/19 13:27:15;;;;;;;0.52;0.52;;;;;;;;;;5092750;28;20047;-84
2023/08/19 13:29:41;;;;;;;0.20;0.20;;;;;;;;;;5092296;28;20028;-84
2023/08/19 13:32:07;;;;;;;0.68;0.63;;;;;;;;;;5091990;28;20019;-83
2023/08/19 13:34:33;;;;;;;0.50;0.50;;;;;;;;;;5074327;28;20496;-86
2023/08/19 13:36:59;;;;;;;2.40;1.27;;;;;;;;;;5074526;28;20413;-85
2023/08/19 13:39:25;;;;;;;3.13;1.17;;;;;;;;;;5092802;28;20111;-86
2023/08/19 13:41:51;;;;;;;1.38;1.25;;;;;;;;;;5092795;28;20027;-85
2023/08/19 13:44:17;;;;;;;3.90;1.58;;;;;;;;;;5092672;28;20431;-85
2023/08/19 13:46:43;;;;;;;0.90;0.90;;;;;;;;;;5092834;28;20024;-85
2023/08/19 13:49:09;;;;;;;0.30;0.30;;;;;;;;;;5092164;28;20396;-87
2023/08/19 13:51:35;;;;;;;0.45;0.45;;;;;;;;;;5092611;28;20027;-85
2023/08/19 13:54:02;;;;;;;0.77;0.77;;;;;;;;;;5092586;28;20028;-85
2023/08/19 13:56:28;;;;;;;0.52;0.52;;;;;;;;;;5092565;28;20028;-84
2023/08/19 13:58:54;;;;;;;0.40;0.40;;;;;;;;;;5092462;28;20530;-83
2023/08/19 14:01:20;;;;;;;0.88;0.88;;;;;;;;;;5092068;28;20090;-80
2023/08/19 14:03:46;;;;;;;0.40;0.40;;;;;;;;;;5092188;28;20035;-84
2023/08/19 14:06:12;;;;;;;1.30;0.88;;;;;;;;;;5091171;28;20077;-82
2023/08/19 14:08:39;;;;;;;0.85;0.57;;;;;;;;;;5092197;28;20032;-82
2023/08/19 14:11:08;;;;;;;0.30;0.30;;;;;;;;;;5092631;28;20095;-82
2023/08/19 14:13:34;;;;;;;0.30;0.30;;;;;;;;;;5095155;28;20035;-82
2023/08/19 14:16:00;;;;;;;0.50;0.50;;;;;;;;;;5091237;28;20040;-82
2023/08/19 14:18:26;;;;;;;0.30;0.30;;;;;;;;;;5092375;28;20040;-84
2023/08/19 14:20:52;;;;;;;1.48;0.88;;;;;;;;;;5092052;28;20446;-82
